createdAt,value
2018-08-22T00:00:58.806Z,15.89
2018-08-22T00:03:26.853Z,15.84
2018-08-22T00:05:54.819Z,15.79
2018-08-22T00:08:27.317Z,15.77
2018-08-22T00:10:55.317Z,15.87
2018-08-22T00:13:23.324Z,15.75
2018-08-22T00:15:51.458Z,15.73
2018-08-22T00:18:19.523Z,15.85
2018-08-22T00:20:47.605Z,15.76
2018-08-22T00:23:15.595Z,15.73
2018-08-22T00:25:43.628Z,15.76
2018-08-22T00:28:11.935Z,15.73
2018-08-22T00:30:39.976Z,15.68
2018-08-22T00:33:08.058Z,15.88
2018-08-22T00:35:36.060Z,15.88
2018-08-22T00:38:04.052Z,15.72
2018-08-22T00:40:32.244Z,15.57
2018-08-22T00:43:00.340Z,15.49
2018-08-22T00:45:28.367Z,15.38
2018-08-22T00:47:56.563Z,15.34
2018-08-22T00:50:24.605Z,15.31
2018-08-22T00:52:52.652Z,15.26
2018-08-22T00:55:20.758Z,15.23
2018-08-22T00:57:48.868Z,15.23
2018-08-22T01:00:17.153Z,15.22
2018-08-22T01:02:45.231Z,15.12
2018-08-22T01:05:13.294Z,15.08
2018-08-22T01:07:41.274Z,15.06
2018-08-22T01:10:09.666Z,14.99
2018-08-22T01:12:38.074Z,14.97
2018-08-22T01:15:06.204Z,15.13
2018-08-22T01:17:34.293Z,15.05
2018-08-22T01:20:02.517Z,14.98
2018-08-22T01:22:30.636Z,14.96
2018-08-22T01:24:58.667Z,14.87
2018-08-22T01:27:26.925Z,14.86
2018-08-22T01:29:55.030Z,14.80
2018-08-22T01:32:23.146Z,14.75
2018-08-22T01:34:52.220Z,14.73
2018-08-22T01:37:20.217Z,14.76
2018-08-22T01:39:48.907Z,14.74
2018-08-22T01:42:17.489Z,14.65
2018-08-22T01:44:46.043Z,14.64
2018-08-22T01:47:14.157Z,14.60
2018-08-22T01:49:42.475Z,14.63
2018-08-22T01:52:10.664Z,14.56
2018-08-22T01:54:38.692Z,14.52
2018-08-22T01:57:06.730Z,14.45
2018-08-22T01:59:34.868Z,14.41
2018-08-22T02:02:02.941Z,14.44
2018-08-22T02:04:30.972Z,14.30
2018-08-22T02:06:59.173Z,14.27
2018-08-22T02:09:27.281Z,14.37
2018-08-22T02:11:55.395Z,14.34
2018-08-22T02:14:23.393Z,14.37
2018-08-22T02:16:51.492Z,14.41
2018-08-22T02:19:19.564Z,14.40
2018-08-22T02:21:47.732Z,14.35
2018-08-22T02:24:15.829Z,14.36
2018-08-22T02:26:43.888Z,14.34
2018-08-22T02:29:11.977Z,14.34
2018-08-22T02:31:40.069Z,14.34
2018-08-22T02:34:08.189Z,14.23
2018-08-22T02:36:36.249Z,14.18
2018-08-22T02:39:06.294Z,14.16
2018-08-22T02:41:34.490Z,14.10
2018-08-22T02:44:02.603Z,14.09
2018-08-22T02:46:30.614Z,14.09
2018-08-22T02:48:58.604Z,14.09
2018-08-22T02:51:26.809Z,14.19
2018-08-22T02:53:54.938Z,14.15
2018-08-22T02:56:22.998Z,14.16
2018-08-22T02:58:51.246Z,14.08
2018-08-22T03:01:19.682Z,14.01
2018-08-22T03:03:47.895Z,14.00
2018-08-22T03:06:16.004Z,13.95
2018-08-22T03:08:44.316Z,13.96
2018-08-22T03:11:12.698Z,13.94
2018-08-22T03:13:40.838Z,13.92
2018-08-22T03:16:08.878Z,13.93
2018-08-22T03:18:36.972Z,13.91
2018-08-22T03:22:08.232Z,13.89
2018-08-22T03:24:36.360Z,13.86
2018-08-22T03:27:04.470Z,13.81
2018-08-22T03:29:32.561Z,13.75
2018-08-22T03:32:00.687Z,13.71
2018-08-22T03:34:28.742Z,13.76
2018-08-22T03:36:56.951Z,13.75
2018-08-22T03:39:24.948Z,13.76
2018-08-22T03:41:52.945Z,13.69
2018-08-22T03:44:21.095Z,14.09
2018-08-22T03:46:49.123Z,13.87
2018-08-22T03:49:17.188Z,13.85
2018-08-22T03:51:45.306Z,13.76
2018-08-22T03:54:13.479Z,13.78
2018-08-22T03:56:41.602Z,13.89
2018-08-22T03:59:09.733Z,13.95
2018-08-22T04:01:37.900Z,14.01
2018-08-22T04:04:05.962Z,14.03
2018-08-22T04:06:34.314Z,14.48
2018-08-22T04:09:02.545Z,15.50
2018-08-22T04:11:30.607Z,16.53
2018-08-22T04:13:58.626Z,17.33
2018-08-22T04:16:26.836Z,17.92
2018-08-22T04:18:55.017Z,18.51
2018-08-22T04:21:23.127Z,18.85
2018-08-22T04:23:51.201Z,19.45
2018-08-22T04:26:19.379Z,19.57
2018-08-22T04:28:47.487Z,19.91
2018-08-22T04:31:15.563Z,20.33
2018-08-22T04:33:43.636Z,20.41
2018-08-22T04:36:11.925Z,20.98
2018-08-22T04:38:40.377Z,21.19
2018-08-22T04:41:08.549Z,20.97
2018-08-22T04:43:36.670Z,21.22
2018-08-22T04:46:04.913Z,20.89
2018-08-22T04:48:33.033Z,20.71
2018-08-22T04:51:01.213Z,20.99
2018-08-22T04:53:29.395Z,21.21
2018-08-22T04:55:57.618Z,21.42
2018-08-22T04:58:25.670Z,21.40
2018-08-22T05:00:53.933Z,21.98
2018-08-22T05:03:22.015Z,21.83
2018-08-22T05:05:50.213Z,21.64
2018-08-22T05:08:18.317Z,22.59
2018-08-22T05:10:46.515Z,22.68
2018-08-22T05:13:14.550Z,22.34
2018-08-22T05:15:42.954Z,22.30
2018-08-22T05:18:11.199Z,22.38
2018-08-22T05:20:39.475Z,22.20
2018-08-22T05:23:07.539Z,22.22
2018-08-22T05:25:35.642Z,21.83
2018-08-22T05:28:03.728Z,22.23
2018-08-22T05:30:31.877Z,22.18
2018-08-22T05:33:00.111Z,21.95
2018-08-22T05:35:28.653Z,22.90
2018-08-22T05:37:56.832Z,23.26
2018-08-22T05:40:25.023Z,23.71
2018-08-22T05:42:53.344Z,23.72
2018-08-22T05:45:21.774Z,22.98
2018-08-22T05:47:49.949Z,22.58
2018-08-22T05:50:18.100Z,22.70
2018-08-22T05:52:46.246Z,22.92
2018-08-22T05:55:14.309Z,22.72
2018-08-22T05:57:42.514Z,22.59
2018-08-22T06:00:10.830Z,22.45
2018-08-22T06:02:39.017Z,22.50
2018-08-22T06:05:07.121Z,22.62
2018-08-22T06:07:35.251Z,22.90
2018-08-22T06:10:03.728Z,23.25
2018-08-22T06:12:32.221Z,23.35
2018-08-22T06:15:00.469Z,23.90
2018-08-22T06:17:28.761Z,23.99
2018-08-22T06:19:56.875Z,24.38
2018-08-22T06:22:25.012Z,24.21
2018-08-22T06:24:53.040Z,24.42
2018-08-22T06:27:21.369Z,24.04
2018-08-22T06:29:49.828Z,24.20
2018-08-22T06:32:18.131Z,24.46
2018-08-22T06:34:46.336Z,24.59
2018-08-22T06:37:14.417Z,24.86
2018-08-22T06:39:42.489Z,25.16
2018-08-22T06:42:10.762Z,24.86
2018-08-22T06:44:38.979Z,24.64
2018-08-22T06:47:07.166Z,25.06
2018-08-22T06:49:35.359Z,25.01
2018-08-22T06:52:03.636Z,25.09
2018-08-22T06:54:31.747Z,25.43
2018-08-22T06:56:59.764Z,25.64
2018-08-22T06:59:28.027Z,25.65
2018-08-22T07:01:56.179Z,25.84
2018-08-22T07:04:24.385Z,25.62
2018-08-22T07:06:52.548Z,26.25
2018-08-22T07:09:20.651Z,26.45
2018-08-22T07:11:48.922Z,26.67
2018-08-22T07:14:17.093Z,26.67
2018-08-22T07:16:45.483Z,26.37
2018-08-22T07:19:13.751Z,26.66
2018-08-22T07:21:42.046Z,27.21
2018-08-22T07:24:10.361Z,27.08
2018-08-22T07:26:38.731Z,26.93
2018-08-22T07:29:07.177Z,27.11
2018-08-22T07:31:35.608Z,27.37
2018-08-22T07:34:14.722Z,27.54
2018-08-22T07:36:44.011Z,27.50
2018-08-22T07:39:17.038Z,27.54
2018-08-22T07:41:49.504Z,28.14
2018-08-22T07:44:18.575Z,28.40
2018-08-22T07:46:46.837Z,27.84
2018-08-22T07:49:15.552Z,26.97
2018-08-22T07:51:44.120Z,27.17
2018-08-22T07:54:12.650Z,27.43
2018-08-22T07:56:41.783Z,27.33
2018-08-22T07:59:12.415Z,27.44
2018-08-22T08:01:40.693Z,27.66
2018-08-22T08:04:10.397Z,28.35
2018-08-22T08:06:38.493Z,28.43
2018-08-22T08:09:10.105Z,28.53
2018-08-22T08:11:38.307Z,28.96
2018-08-22T08:14:06.905Z,28.72
2018-08-22T08:16:35.253Z,28.22
2018-08-22T08:19:03.618Z,28.10
2018-08-22T08:21:31.960Z,28.35
2018-08-22T08:24:00.249Z,28.03
2018-08-22T08:26:28.516Z,28.05
2018-08-22T08:29:02.917Z,28.04
2018-08-22T08:31:35.828Z,28.63
2018-08-22T08:34:06.042Z,28.55
2018-08-22T08:36:34.413Z,28.78
2018-08-22T08:39:03.681Z,28.41
2018-08-22T08:41:32.715Z,27.77
2018-08-22T08:44:00.978Z,27.92
2018-08-22T08:46:29.223Z,28.68
2018-08-22T08:48:57.616Z,28.65
2018-08-22T08:51:26.027Z,28.40
2018-08-22T08:53:54.434Z,28.11
2018-08-22T08:56:22.748Z,28.62
2018-08-22T08:58:52.956Z,28.39
2018-08-22T09:01:21.373Z,28.34
2018-08-22T09:03:49.765Z,28.38
2018-08-22T09:06:18.018Z,28.58
2018-08-22T09:08:46.332Z,28.49
2018-08-22T09:11:14.747Z,28.15
2018-08-22T09:13:58.055Z,27.92
2018-08-22T09:16:26.570Z,28.34
2018-08-22T09:18:55.130Z,28.02
2018-08-22T09:21:24.739Z,28.27
2018-08-22T09:23:53.230Z,28.14
2018-08-22T09:26:23.440Z,28.08
2018-08-22T09:28:51.841Z,28.27
2018-08-22T09:31:20.682Z,28.17
2018-08-22T09:33:49.313Z,28.25
2018-08-22T09:36:17.860Z,28.43
2018-08-22T09:38:47.432Z,28.19
2018-08-22T09:41:16.706Z,28.78
2018-08-22T09:43:45.252Z,28.74
2018-08-22T09:46:14.061Z,28.69
2018-08-22T09:48:42.753Z,28.60
2018-08-22T09:51:11.230Z,28.75
2018-08-22T09:53:39.912Z,28.63
2018-08-22T09:56:08.783Z,28.83
2018-08-22T09:58:37.386Z,28.92
2018-08-22T10:01:11.374Z,28.68
2018-08-22T10:03:51.153Z,29.04
2018-08-22T10:06:50.905Z,29.08
2018-08-22T11:45:11.129Z,29.32
2018-08-22T11:47:39.590Z,29.36
2018-08-22T11:50:08.102Z,29.06
2018-08-22T11:52:36.613Z,29.61
2018-08-22T11:55:05.910Z,29.70
2018-08-22T11:57:34.399Z,29.32
2018-08-22T12:00:02.911Z,29.73
2018-08-22T12:02:32.383Z,29.50
2018-08-22T12:05:00.785Z,29.96
2018-08-22T12:07:30.959Z,29.80
2018-08-22T12:09:59.464Z,29.61
2018-08-22T12:12:28.063Z,29.52
2018-08-22T12:14:57.193Z,29.54
2018-08-22T12:17:25.748Z,29.67
2018-08-22T12:19:54.087Z,29.78
2018-08-22T12:22:22.314Z,29.84
2018-08-22T12:24:50.598Z,29.69
2018-08-22T12:27:18.930Z,29.70
2018-08-22T12:29:47.329Z,29.76
2018-08-22T12:32:15.829Z,29.85
2018-08-22T12:34:44.116Z,29.54
2018-08-22T12:37:12.516Z,29.55
2018-08-22T12:39:40.794Z,29.45
2018-08-22T12:42:09.084Z,29.25
2018-08-22T12:44:37.879Z,29.43
2018-08-22T12:47:06.271Z,29.31
2018-08-22T12:49:34.694Z,29.19
2018-08-22T12:52:03.237Z,29.20
2018-08-22T12:54:31.545Z,29.10
2018-08-22T12:57:00.059Z,29.26
2018-08-22T12:59:28.729Z,29.17
2018-08-22T13:01:57.603Z,28.98
2018-08-22T13:04:26.037Z,29.03
2018-08-22T13:06:54.293Z,29.35
2018-08-22T13:09:22.680Z,29.38
2018-08-22T13:11:51.314Z,29.36
2018-08-22T13:14:20.239Z,29.20
2018-08-22T13:16:50.196Z,29.11
2018-08-22T13:19:20.998Z,29.18
2018-08-22T13:21:49.883Z,28.97
2018-08-22T13:24:18.233Z,29.13
2018-08-22T13:26:46.579Z,29.10
2018-08-22T13:29:14.909Z,29.12
2018-08-22T13:31:43.444Z,29.17
2018-08-22T13:34:11.793Z,29.07
2018-08-22T13:36:41.813Z,29.30
2018-08-22T13:39:11.104Z,29.35
2018-08-22T13:41:39.485Z,28.96
2018-08-22T13:44:08.063Z,28.87
2018-08-22T13:46:36.470Z,28.87
2018-08-22T13:49:04.755Z,28.82
2018-08-22T13:51:33.237Z,28.62
2018-08-22T13:54:01.723Z,28.63
2018-08-22T13:56:30.259Z,28.66
2018-08-22T13:58:58.589Z,28.75
2018-08-22T14:01:26.991Z,28.53
2018-08-22T14:03:55.925Z,28.51
2018-08-22T14:06:24.154Z,28.62
2018-08-22T14:08:52.601Z,28.73
2018-08-22T14:11:21.012Z,28.72
2018-08-22T14:13:49.857Z,28.70
2018-08-22T14:16:18.639Z,28.67
2018-08-22T14:18:46.986Z,28.42
2018-08-22T14:21:15.266Z,28.40
2018-08-22T14:23:43.611Z,28.51
2018-08-22T14:26:12.162Z,28.49
2018-08-22T14:28:41.067Z,28.51
2018-08-22T14:31:09.581Z,28.54
2018-08-22T14:33:38.257Z,28.52
2018-08-22T14:36:08.063Z,28.53
2018-08-22T14:38:36.683Z,28.46
2018-08-22T14:41:05.129Z,28.36
2018-08-22T14:43:33.667Z,28.30
2018-08-22T14:46:02.366Z,28.24
2018-08-22T14:48:33.260Z,28.23
2018-08-22T14:51:02.218Z,28.34
2018-08-22T14:53:30.745Z,28.17
2018-08-22T14:55:59.216Z,28.18
2018-08-22T14:58:27.676Z,28.24
2018-08-22T15:00:56.160Z,28.14
2018-08-22T15:03:25.216Z,28.03
2018-08-22T15:05:53.442Z,28.01
2018-08-22T15:08:21.920Z,28.00
2018-08-22T15:10:50.320Z,27.96
2018-08-22T15:13:18.841Z,28.01
2018-08-22T15:15:47.516Z,27.98
2018-08-22T15:18:15.925Z,27.91
2018-08-22T15:20:44.452Z,27.97
2018-08-22T15:23:12.938Z,27.91
2018-08-22T15:25:41.384Z,27.91
2018-08-22T15:28:10.086Z,27.79
2018-08-22T15:30:38.394Z,27.75
2018-08-22T15:33:06.785Z,27.73
2018-08-22T15:35:35.295Z,27.68
2018-08-22T15:38:03.796Z,27.60
2018-08-22T15:40:32.193Z,27.59
2018-08-22T15:43:00.648Z,27.53
2018-08-22T15:45:29.145Z,27.48
2018-08-22T15:47:57.469Z,27.40
2018-08-22T15:50:25.946Z,27.32
2018-08-22T15:52:54.359Z,27.31
2018-08-22T15:55:22.803Z,27.28
2018-08-22T15:58:00.954Z,27.19
2018-08-22T16:00:50.789Z,27.10
2018-08-22T16:03:19.399Z,27.04
2018-08-22T16:05:48.655Z,27.01
2018-08-22T16:08:18.978Z,26.94
2018-08-22T16:10:47.953Z,26.84
2018-08-22T16:13:21.801Z,26.80
2018-08-22T16:15:52.460Z,26.72
2018-08-22T16:18:21.078Z,26.72
2018-08-22T16:20:55.961Z,26.43
2018-08-22T16:23:26.003Z,26.45
2018-08-22T16:25:55.055Z,26.46
2018-08-22T16:28:23.904Z,26.37
2018-08-22T16:30:57.046Z,26.34
2018-08-22T16:33:21.812Z,26.19
2018-08-22T16:35:50.086Z,26.16
2018-08-22T16:38:18.367Z,25.89
2018-08-22T16:40:50.951Z,25.85
2018-08-22T16:43:35.787Z,25.78
2018-08-22T16:46:07.083Z,25.73
2018-08-22T16:48:35.408Z,25.75
2018-08-22T16:51:03.800Z,25.64
2018-08-22T16:53:32.368Z,25.57
2018-08-22T16:56:04.314Z,25.26
2018-08-22T16:58:33.390Z,24.93
2018-08-22T17:01:02.550Z,24.63
2018-08-22T17:03:31.160Z,24.55
2018-08-22T17:06:05.772Z,24.47
2018-08-22T17:08:34.258Z,24.27
2018-08-22T17:11:03.904Z,24.14
2018-08-22T17:13:46.397Z,23.80
2018-08-22T17:16:14.765Z,23.49
2018-08-22T17:18:44.112Z,23.48
2018-08-22T17:21:12.467Z,23.39
2018-08-22T17:23:42.582Z,23.23
2018-08-22T17:26:14.419Z,23.25
2018-08-22T17:28:44.776Z,23.22
2018-08-22T17:31:13.796Z,23.08
2018-08-22T17:33:47.527Z,22.87
2018-08-22T17:36:17.814Z,22.85
2018-08-22T17:38:47.496Z,22.96
2018-08-22T17:41:16.017Z,22.92
2018-08-22T17:43:58.499Z,22.79
2018-08-22T17:46:28.331Z,22.59
2018-08-22T17:48:57.046Z,22.26
2018-08-22T17:51:25.947Z,22.37
2018-08-22T17:53:55.001Z,22.34
2018-08-22T17:56:24.361Z,22.32
2018-08-22T17:58:53.739Z,22.08
2018-08-22T18:01:22.788Z,22.03
2018-08-22T18:03:52.395Z,22.00
2018-08-22T18:06:23.227Z,21.92
2018-08-22T18:08:52.223Z,21.94
2018-08-22T18:11:21.259Z,21.84
2018-08-22T18:13:49.636Z,21.75
2018-08-22T18:16:19.153Z,21.53
2018-08-22T18:18:50.277Z,21.42
2018-08-22T18:21:19.010Z,21.50
2018-08-22T18:23:53.181Z,21.44
2018-08-22T18:26:22.125Z,21.29
2018-08-22T18:28:51.216Z,21.20
2018-08-22T18:31:19.825Z,21.15
2018-08-22T18:34:02.451Z,21.10
2018-08-22T18:36:31.861Z,20.86
2018-08-22T18:39:12.378Z,20.77
2018-08-22T18:41:40.798Z,20.65
2018-08-22T18:44:09.031Z,20.56
2018-08-22T18:46:37.422Z,20.57
2018-08-22T18:49:06.085Z,20.46
2018-08-22T18:51:35.164Z,20.43
2018-08-22T18:54:04.398Z,20.35
2018-08-22T18:56:32.559Z,20.26
2018-08-22T18:59:33.124Z,20.18
2018-08-22T19:02:01.435Z,20.23
2018-08-22T19:04:29.656Z,20.09
2018-08-22T19:06:57.860Z,20.06
2018-08-22T19:09:25.996Z,20.07
2018-08-22T19:11:54.190Z,20.04
2018-08-22T19:14:36.831Z,20.13
2018-08-22T19:17:05.010Z,19.95
2018-08-22T19:19:37.628Z,20.01
2018-08-22T19:22:05.832Z,19.99
2018-08-22T19:24:34.513Z,19.96
2018-08-22T19:27:03.002Z,19.88
2018-08-22T19:29:31.480Z,19.87
2018-08-22T19:31:59.708Z,19.86
2018-08-22T19:34:27.907Z,19.82
2018-08-22T19:36:56.147Z,19.75
2018-08-22T19:39:24.403Z,19.66
2018-08-22T19:41:52.846Z,19.62
2018-08-22T19:44:21.030Z,19.56
2018-08-22T19:46:49.153Z,19.47
2018-08-22T19:49:17.243Z,19.47
2018-08-22T19:51:45.415Z,19.32
2018-08-22T19:54:13.613Z,19.38
2018-08-22T19:56:41.735Z,19.30
2018-08-22T19:59:09.825Z,19.31
2018-08-22T20:01:38.048Z,19.26
2018-08-22T20:04:06.121Z,19.24
2018-08-22T20:06:34.312Z,19.21
2018-08-22T20:09:02.667Z,19.20
2018-08-22T20:11:32.440Z,19.19
2018-08-22T20:14:02.343Z,19.18
2018-08-22T20:16:30.482Z,19.09
2018-08-22T20:19:00.223Z,19.06
2018-08-22T20:21:35.979Z,19.07
2018-08-22T20:24:05.481Z,19.04
2018-08-22T20:26:33.964Z,19.01
2018-08-22T20:29:03.408Z,18.99
2018-08-22T20:31:32.433Z,18.97
2018-08-22T20:34:12.349Z,18.95
2018-08-22T20:36:42.146Z,18.89
2018-08-22T20:39:11.345Z,18.82
2018-08-22T20:41:40.241Z,18.78
2018-08-22T20:44:12.943Z,18.78
2018-08-22T20:46:42.959Z,18.81
2018-08-22T20:49:11.424Z,18.69
2018-08-22T20:51:39.627Z,18.63
2018-08-22T20:54:10.204Z,18.63
2018-08-22T20:56:45.871Z,18.64
2018-08-22T20:59:14.767Z,18.67
2018-08-22T21:01:44.392Z,18.62
2018-08-22T21:04:12.565Z,18.60
2018-08-22T21:06:40.670Z,18.55
2018-08-22T21:09:08.750Z,18.51
2018-08-22T21:11:38.542Z,18.48
2018-08-22T21:14:06.825Z,18.46
2018-08-22T21:16:35.365Z,18.40
2018-08-22T21:19:03.674Z,18.32
2018-08-22T21:21:31.876Z,18.25
2018-08-22T21:24:00.002Z,18.22
2018-08-22T21:26:37.456Z,18.18
2018-08-22T21:29:05.859Z,18.08
2018-08-22T21:31:34.704Z,18.08
2018-08-22T21:34:23.678Z,18.25
2018-08-22T21:36:51.943Z,18.30
2018-08-22T21:39:26.931Z,18.32
2018-08-22T21:41:55.312Z,18.36
2018-08-22T21:44:23.686Z,18.34
2018-08-22T21:46:59.129Z,18.12
2018-08-22T21:49:27.736Z,17.97
2018-08-22T21:51:59.399Z,17.87
2018-08-22T21:54:27.816Z,17.78
2018-08-22T21:56:55.877Z,17.70
2018-08-22T21:59:23.998Z,17.63
2018-08-22T22:01:57.627Z,17.59
2018-08-22T22:04:30.915Z,17.66
2018-08-22T22:06:59.109Z,17.58
2018-08-22T22:09:27.509Z,17.51
2018-08-22T22:11:58.507Z,17.47
2018-08-22T22:14:27.855Z,17.41
2018-08-22T22:16:57.690Z,17.33
2018-08-22T22:19:27.143Z,17.31
2018-08-22T22:21:55.544Z,17.34
2018-08-22T22:24:23.680Z,17.25
2018-08-22T22:26:51.740Z,17.28
2018-08-22T22:29:23.138Z,17.26
2018-08-22T22:31:51.372Z,17.36
2018-08-22T22:34:19.556Z,17.36
2018-08-22T22:36:47.972Z,17.24
2018-08-22T22:39:32.499Z,17.21
2018-08-22T22:42:00.951Z,17.24
2018-08-22T22:44:29.081Z,17.22
2018-08-22T22:46:57.109Z,17.25
2018-08-22T22:49:25.243Z,17.40
2018-08-22T22:51:53.328Z,17.37
2018-08-22T22:54:32.597Z,17.34
2018-08-22T22:57:00.638Z,17.23
2018-08-22T22:59:28.768Z,17.31
2018-08-22T23:01:56.798Z,17.27
2018-08-22T23:04:26.271Z,17.25
2018-08-22T23:07:32.122Z,17.16
2018-08-22T23:10:01.354Z,17.06
2018-08-22T23:12:46.957Z,17.11
2018-08-22T23:15:22.030Z,16.98
2018-08-22T23:17:52.144Z,16.86
2018-08-22T23:20:27.324Z,17.07
2018-08-22T23:22:55.940Z,16.93
2018-08-22T23:25:24.415Z,16.93
2018-08-22T23:27:52.533Z,16.93
2018-08-22T23:30:27.441Z,16.83
2018-08-22T23:32:56.778Z,16.75
2018-08-22T23:35:29.317Z,16.69
2018-08-22T23:37:58.580Z,16.63
2018-08-22T23:40:27.652Z,16.57
2018-08-22T23:42:56.062Z,16.53
2018-08-22T23:45:24.248Z,16.41
2018-08-22T23:47:52.581Z,16.47
2018-08-22T23:50:20.879Z,16.43
2018-08-22T23:52:50.415Z,16.38
2018-08-22T23:55:20.165Z,16.33
2018-08-22T23:57:51.629Z,16.29
